sensor_id;sensor_type;location;lat;lon;timestamp;pressure;altitude;pressure_sealevel;temperature
24201;BMP280;2801;50.972;7.856;2024-02-04T00:01:04;98286.25;;;9.99
24201;BMP280;2801;50.972;7.856;2024-02-04T00:03:31;98282.47;;;10.00
24201;BMP280;2801;50.972;7.856;2024-02-04T00:06:01;98290.44;;;10.05
24201;BMP280;2801;50.972;7.856;2024-02-04T00:08:28;98280.56;;;10.01
24201;BMP280;2801;50.972;7.856;2024-02-04T00:10:55;98282.94;;;10.02
24201;BMP280;2801;50.972;7.856;2024-02-04T00:13:23;98276.81;;;10.02
24201;BMP280;2801;50.972;7.856;2024-02-04T00:15:50;98284.75;;;9.93
24201;BMP280;2801;50.972;7.856;2024-02-04T00:18:19;98284.34;;;10.00
24201;BMP280;2801;50.972;7.856;2024-02-04T00:20:46;98282.25;;;9.97
24201;BMP280;2801;50.972;7.856;2024-02-04T00:23:14;98281.19;;;9.98
24201;BMP280;2801;50.972;7.856;2024-02-04T00:25:41;98278.81;;;9.96
24201;BMP280;2801;50.972;7.856;2024-02-04T00:28:08;98280.97;;;9.94
24201;BMP280;2801;50.972;7.856;2024-02-04T00:30:38;98278.59;;;9.93
24201;BMP280;2801;50.972;7.856;2024-02-04T00:33:05;98283.56;;;9.99
24201;BMP280;2801;50.972;7.856;2024-02-04T00:35:33;98279.28;;;9.98
24201;BMP280;2801;50.972;7.856;2024-02-04T00:38:00;98278.22;;;9.99
24201;BMP280;2801;50.972;7.856;2024-02-04T00:40:29;98283.06;;;9.97
24201;BMP280;2801;50.972;7.856;2024-02-04T00:42:56;98273.16;;;9.98
24201;BMP280;2801;50.972;7.856;2024-02-04T00:45:24;98272.16;;;9.94
24201;BMP280;2801;50.972;7.856;2024-02-04T00:47:51;98269.66;;;9.97
24201;BMP280;2801;50.972;7.856;2024-02-04T00:50:18;98265.13;;;9.98
24201;BMP280;2801;50.972;7.856;2024-02-04T00:52:46;98255.59;;;9.92
24201;BMP280;2801;50.972;7.856;2024-02-04T00:55:13;98252.63;;;9.93
24201;BMP280;2801;50.972;7.856;2024-02-04T00:57:40;98264.13;;;9.94
24201;BMP280;2801;50.972;7.856;2024-02-04T01:00:07;98264.72;;;9.91
24201;BMP280;2801;50.972;7.856;2024-02-04T01:02:35;98273.25;;;9.93
24201;BMP280;2801;50.972;7.856;2024-02-04T01:05:02;98272.94;;;9.94
24201;BMP280;2801;50.972;7.856;2024-02-04T01:07:29;98275.84;;;9.98
24201;BMP280;2801;50.972;7.856;2024-02-04T01:09:56;98275.13;;;9.92
24201;BMP280;2801;50.972;7.856;2024-02-04T01:12:23;98267.19;;;9.87
24201;BMP280;2801;50.972;7.856;2024-02-04T01:14:51;98271.47;;;9.88
24201;BMP280;2801;50.972;7.856;2024-02-04T01:17:18;98268.09;;;9.83
24201;BMP280;2801;50.972;7.856;2024-02-04T01:19:45;98279.88;;;9.82
24201;BMP280;2801;50.972;7.856;2024-02-04T01:22:12;98270.56;;;9.79
24201;BMP280;2801;50.972;7.856;2024-02-04T01:24:39;98264.31;;;9.84
24201;BMP280;2801;50.972;7.856;2024-02-04T01:27:06;98268.41;;;9.81
24201;BMP280;2801;50.972;7.856;2024-02-04T01:29:34;98260.78;;;9.75
24201;BMP280;2801;50.972;7.856;2024-02-04T01:32:01;98262.94;;;9.73
24201;BMP280;2801;50.972;7.856;2024-02-04T01:34:28;98260.25;;;9.73
24201;BMP280;2801;50.972;7.856;2024-02-04T01:36:55;98252.81;;;9.70
24201;BMP280;2801;50.972;7.856;2024-02-04T01:39:22;98259.97;;;9.74
24201;BMP280;2801;50.972;7.856;2024-02-04T01:41:50;98244.50;;;9.71
24201;BMP280;2801;50.972;7.856;2024-02-04T01:44:17;98256.00;;;9.72
24201;BMP280;2801;50.972;7.856;2024-02-04T01:46:45;98253.31;;;9.72
24201;BMP280;2801;50.972;7.856;2024-02-04T01:49:12;98244.31;;;9.68
24201;BMP280;2801;50.972;7.856;2024-02-04T01:51:40;98242.22;;;9.65
24201;BMP280;2801;50.972;7.856;2024-02-04T01:54:08;98234.66;;;9.67
24201;BMP280;2801;50.972;7.856;2024-02-04T01:56:36;98237.56;;;9.70
24201;BMP280;2801;50.972;7.856;2024-02-04T01:59:03;98241.63;;;9.68
24201;BMP280;2801;50.972;7.856;2024-02-04T02:01:31;98242.09;;;9.70
24201;BMP280;2801;50.972;7.856;2024-02-04T02:03:59;98239.66;;;9.73
24201;BMP280;2801;50.972;7.856;2024-02-04T02:06:29;98236.16;;;9.73
24201;BMP280;2801;50.972;7.856;2024-02-04T02:09:00;98244.19;;;9.73
24201;BMP280;2801;50.972;7.856;2024-02-04T02:14:27;98241.03;;;9.71
24201;BMP280;2801;50.972;7.856;2024-02-04T02:17:05;98228.25;;;9.68
24201;BMP280;2801;50.972;7.856;2024-02-04T02:19:46;98215.16;;;9.66
24201;BMP280;2801;50.972;7.856;2024-02-04T02:22:47;98210.09;;;9.65
24201;BMP280;2801;50.972;7.856;2024-02-04T02:25:17;98212.94;;;9.68
24201;BMP280;2801;50.972;7.856;2024-02-04T02:27:51;98211.06;;;9.69
24201;BMP280;2801;50.972;7.856;2024-02-04T02:30:18;98200.38;;;9.69
24201;BMP280;2801;50.972;7.856;2024-02-04T02:32:48;98211.06;;;9.69
24201;BMP280;2801;50.972;7.856;2024-02-04T02:35:16;98211.06;;;9.69
24201;BMP280;2801;50.972;7.856;2024-02-04T02:37:55;98208.69;;;9.67
24201;BMP280;2801;50.972;7.856;2024-02-04T02:40:31;98203.03;;;9.69
24201;BMP280;2801;50.972;7.856;2024-02-04T02:43:03;98204.91;;;9.68
24201;BMP280;2801;50.972;7.856;2024-02-04T02:45:30;98200.66;;;9.67
24201;BMP280;2801;50.972;7.856;2024-02-04T02:48:00;98208.41;;;9.69
24201;BMP280;2801;50.972;7.856;2024-02-04T02:50:28;98206.81;;;9.68
24201;BMP280;2801;50.972;7.856;2024-02-04T02:52:54;98204.91;;;9.68
24201;BMP280;2801;50.972;7.856;2024-02-04T02:55:22;98199.56;;;9.68
24201;BMP280;2801;50.972;7.856;2024-02-04T02:57:49;98198.97;;;9.71
24201;BMP280;2801;50.972;7.856;2024-02-04T03:00:16;98196.59;;;9.70
24201;BMP280;2801;50.972;7.856;2024-02-04T03:02:43;98192.34;;;9.69
24201;BMP280;2801;50.972;7.856;2024-02-04T03:05:12;98190.47;;;9.69
24201;BMP280;2801;50.972;7.856;2024-02-04T03:07:39;98193.31;;;9.73
24201;BMP280;2801;50.972;7.856;2024-02-04T03:10:06;98187.97;;;9.73
24201;BMP280;2801;50.972;7.856;2024-02-04T03:12:33;98185.78;;;9.75
24201;BMP280;2801;50.972;7.856;2024-02-04T03:15:01;98190.94;;;9.71
24201;BMP280;2801;50.972;7.856;2024-02-04T03:17:28;98197.88;;;9.72
24201;BMP280;2801;50.972;7.856;2024-02-04T03:19:55;98197.28;;;9.75
24201;BMP280;2801;50.972;7.856;2024-02-04T03:22:22;98193.03;;;9.74
24201;BMP280;2801;50.972;7.856;2024-02-04T03:24:49;98194.59;;;9.75
24201;BMP280;2801;50.972;7.856;2024-02-04T03:27:18;98191.63;;;9.77
24201;BMP280;2801;50.972;7.856;2024-02-04T03:29:45;98183.59;;;9.77
24201;BMP280;2801;50.972;7.856;2024-02-04T03:32:12;98191.94;;;9.75
24201;BMP280;2801;50.972;7.856;2024-02-04T03:34:42;98195.09;;;9.77
24201;BMP280;2801;50.972;7.856;2024-02-04T03:37:09;98189.16;;;9.80
24201;BMP280;2801;50.972;7.856;2024-02-04T03:39:37;98185.00;;;9.74
24201;BMP280;2801;50.972;7.856;2024-02-04T03:42:04;98197.19;;;9.80
24201;BMP280;2801;50.972;7.856;2024-02-04T03:44:31;98189.16;;;9.80
24201;BMP280;2801;50.972;7.856;2024-02-04T03:46:58;98191.03;;;9.80
24201;BMP280;2801;50.972;7.856;2024-02-04T03:49:25;98201.44;;;9.81
24201;BMP280;2801;50.972;7.856;2024-02-04T03:51:52;98198.34;;;9.88
24201;BMP280;2801;50.972;7.856;2024-02-04T03:54:19;98187.16;;;9.86
24201;BMP280;2801;50.972;7.856;2024-02-04T03:56:46;98195.38;;;9.89
24201;BMP280;2801;50.972;7.856;2024-02-04T03:59:13;98190.50;;;9.91
24201;BMP280;2801;50.972;7.856;2024-02-04T04:01:40;98188.63;;;9.92
24201;BMP280;2801;50.972;7.856;2024-02-04T04:04:13;98176.22;;;9.96
24201;BMP280;2801;50.972;7.856;2024-02-04T04:06:40;98176.72;;;9.98
24201;BMP280;2801;50.972;7.856;2024-02-04T04:09:08;98177.50;;;9.98
24201;BMP280;2801;50.972;7.856;2024-02-04T04:11:35;98170.56;;;9.97
24201;BMP280;2801;50.972;7.856;2024-02-04T04:14:02;98170.25;;;9.99
24201;BMP280;2801;50.972;7.856;2024-02-04T04:16:29;98175.31;;;10.00
24201;BMP280;2801;50.972;7.856;2024-02-04T04:18:56;98169.75;;;9.97
24201;BMP280;2801;50.972;7.856;2024-02-04T04:21:25;98164.91;;;9.99
24201;BMP280;2801;50.972;7.856;2024-02-04T04:23:53;98177.41;;;10.03
24201;BMP280;2801;50.972;7.856;2024-02-04T04:26:20;98164.41;;;9.97
24201;BMP280;2801;50.972;7.856;2024-02-04T04:28:47;98163.81;;;10.00
24201;BMP280;2801;50.972;7.856;2024-02-04T04:31:15;98170.44;;;10.02
24201;BMP280;2801;50.972;7.856;2024-02-04T04:33:42;98173.41;;;10.01
24201;BMP280;2801;50.972;7.856;2024-02-04T04:36:10;98169.38;;;10.03
24201;BMP280;2801;50.972;7.856;2024-02-04T04:38:37;98172.34;;;10.02
24201;BMP280;2801;50.972;7.856;2024-02-04T04:41:04;98162.41;;;10.02
24201;BMP280;2801;50.972;7.856;2024-02-04T04:43:32;98157.28;;;10.06
24201;BMP280;2801;50.972;7.856;2024-02-04T04:46:01;98164.50;;;10.05
24201;BMP280;2801;50.972;7.856;2024-02-04T04:48:28;98163.91;;;10.08
24201;BMP280;2801;50.972;7.856;2024-02-04T04:50:55;98168.97;;;10.10
24201;BMP280;2801;50.972;7.856;2024-02-04T04:53:22;98184.53;;;10.08
24201;BMP280;2801;50.972;7.856;2024-02-04T04:55:49;98180.78;;;10.09
24201;BMP280;2801;50.972;7.856;2024-02-04T04:58:16;98180.00;;;10.08
24201;BMP280;2801;50.972;7.856;2024-02-04T05:00:43;98186.63;;;10.11
24201;BMP280;2801;50.972;7.856;2024-02-04T05:03:10;98186.75;;;10.06
24201;BMP280;2801;50.972;7.856;2024-02-04T05:05:37;98184.34;;;10.04
24201;BMP280;2801;50.972;7.856;2024-02-04T05:08:04;98191.22;;;10.10
24201;BMP280;2801;50.972;7.856;2024-02-04T05:10:31;98192.97;;;10.15
24201;BMP280;2801;50.972;7.856;2024-02-04T05:12:58;98198.44;;;10.10
24201;BMP280;2801;50.972;7.856;2024-02-04T05:15:25;98208.06;;;10.11
24201;BMP280;2801;50.972;7.856;2024-02-04T05:17:52;98206.97;;;10.12
24201;BMP280;2801;50.972;7.856;2024-02-04T05:20:19;98203.91;;;10.05
24201;BMP280;2801;50.972;7.856;2024-02-04T05:22:46;98201.94;;;10.10
24201;BMP280;2801;50.972;7.856;2024-02-04T05:25:13;98197.63;;;10.09
24201;BMP280;2801;50.972;7.856;2024-02-04T05:27:41;98194.50;;;10.07
24201;BMP280;2801;50.972;7.856;2024-02-04T05:30:09;98188.31;;;10.07
24201;BMP280;2801;50.972;7.856;2024-02-04T05:32:36;98179.19;;;10.08
24201;BMP280;2801;50.972;7.856;2024-02-04T05:35:04;98180.84;;;10.04
24201;BMP280;2801;50.972;7.856;2024-02-04T05:37:31;98177.59;;;10.07
24201;BMP280;2801;50.972;7.856;2024-02-04T05:39:58;98178.41;;;10.07
24201;BMP280;2801;50.972;7.856;2024-02-04T05:42:26;98176.28;;;10.04
24201;BMP280;2801;50.972;7.856;2024-02-04T05:44:53;98174.81;;;10.12
24201;BMP280;2801;50.972;7.856;2024-02-04T05:47:20;98177.59;;;10.07
24201;BMP280;2801;50.972;7.856;2024-02-04T05:49:46;98187.13;;;9.99
24201;BMP280;2801;50.972;7.856;2024-02-04T05:52:15;98183.53;;;10.04
24201;BMP280;2801;50.972;7.856;2024-02-04T05:54:42;98166.97;;;10.02
24201;BMP280;2801;50.972;7.856;2024-02-04T05:57:09;98174.13;;;10.06
24201;BMP280;2801;50.972;7.856;2024-02-04T05:59:38;98170.94;;;10.04
24201;BMP280;2801;50.972;7.856;2024-02-04T06:02:05;98174.72;;;10.03
24201;BMP280;2801;50.972;7.856;2024-02-04T06:04:33;98174.50;;;10.13
24201;BMP280;2801;50.972;7.856;2024-02-04T06:07:02;98167.09;;;10.10
24201;BMP280;2801;50.972;7.856;2024-02-04T06:09:29;98185.94;;;10.05
24201;BMP280;2801;50.972;7.856;2024-02-04T06:11:56;98165.50;;;10.09
24201;BMP280;2801;50.972;7.856;2024-02-04T06:14:23;98175.22;;;10.05
24201;BMP280;2801;50.972;7.856;2024-02-04T06:16:50;98173.13;;;10.02
24201;BMP280;2801;50.972;7.856;2024-02-04T06:19:17;98161.31;;;10.03
24201;BMP280;2801;50.972;7.856;2024-02-04T06:21:44;98159.25;;;10.00
24201;BMP280;2801;50.972;7.856;2024-02-04T06:24:11;98163.03;;;9.99
24201;BMP280;2801;50.972;7.856;2024-02-04T06:26:39;98163.03;;;9.99
24201;BMP280;2801;50.972;7.856;2024-02-04T06:29:06;98167.28;;;10.00
24201;BMP280;2801;50.972;7.856;2024-02-04T06:31:34;98168.06;;;10.01
24201;BMP280;2801;50.972;7.856;2024-02-04T06:34:01;98169.97;;;10.00
24201;BMP280;2801;50.972;7.856;2024-02-04T06:36:28;98161.13;;;10.00
24201;BMP280;2801;50.972;7.856;2024-02-04T06:38:55;98166.00;;;9.98
24201;BMP280;2801;50.972;7.856;2024-02-04T06:41:22;98162.69;;;10.01
24201;BMP280;2801;50.972;7.856;2024-02-04T06:43:49;98159.72;;;10.02
24201;BMP280;2801;50.972;7.856;2024-02-04T06:46:29;98159.03;;;9.97
24201;BMP280;2801;50.972;7.856;2024-02-04T06:48:56;98146.44;;;9.97
24201;BMP280;2801;50.972;7.856;2024-02-04T06:51:23;98144.75;;;10.01
24201;BMP280;2801;50.972;7.856;2024-02-04T06:53:51;98138.59;;;10.01
24201;BMP280;2801;50.972;7.856;2024-02-04T06:56:18;98137.63;;;9.97
24201;BMP280;2801;50.972;7.856;2024-02-04T06:58:45;98135.75;;;9.97
24201;BMP280;2801;50.972;7.856;2024-02-04T07:01:12;98136.13;;;10.04
24201;BMP280;2801;50.972;7.856;2024-02-04T07:03:40;98125.03;;;9.97
24201;BMP280;2801;50.972;7.856;2024-02-04T07:06:07;98117.78;;;9.98
24201;BMP280;2801;50.972;7.856;2024-02-04T07:08:34;98114.41;;;10.06
24201;BMP280;2801;50.972;7.856;2024-02-04T07:11:01;98121.66;;;10.05
24201;BMP280;2801;50.972;7.856;2024-02-04T07:13:28;98135.03;;;10.05
24201;BMP280;2801;50.972;7.856;2024-02-04T07:15:55;98131.56;;;10.05
24201;BMP280;2801;50.972;7.856;2024-02-04T07:18:22;98135.84;;;10.06
24201;BMP280;2801;50.972;7.856;2024-02-04T07:20:49;98135.31;;;10.04
24201;BMP280;2801;50.972;7.856;2024-02-04T07:23:16;98129.94;;;10.04
24201;BMP280;2801;50.972;7.856;2024-02-04T07:25:43;98119.47;;;10.07
24201;BMP280;2801;50.972;7.856;2024-02-04T07:28:10;98107.16;;;10.06
24201;BMP280;2801;50.972;7.856;2024-02-04T07:30:37;98097.44;;;10.10
24201;BMP280;2801;50.972;7.856;2024-02-04T07:33:04;98093.16;;;10.09
24201;BMP280;2801;50.972;7.856;2024-02-04T07:35:32;98102.91;;;10.05
24201;BMP280;2801;50.972;7.856;2024-02-04T07:37:59;98092.19;;;10.05
24201;BMP280;2801;50.972;7.856;2024-02-04T07:40:26;98095.22;;;10.12
24201;BMP280;2801;50.972;7.856;2024-02-04T07:42:54;98091.44;;;10.13
24201;BMP280;2801;50.972;7.856;2024-02-04T07:45:22;98108.03;;;10.15
24201;BMP280;2801;50.972;7.856;2024-02-04T07:47:49;98099.47;;;10.13
24201;BMP280;2801;50.972;7.856;2024-02-04T07:50:16;98100.66;;;10.21
24201;BMP280;2801;50.972;7.856;2024-02-04T07:52:43;98108.50;;;10.17
24201;BMP280;2801;50.972;7.856;2024-02-04T07:55:11;98112.16;;;10.21
24201;BMP280;2801;50.972;7.856;2024-02-04T07:57:38;98122.56;;;10.23
24201;BMP280;2801;50.972;7.856;2024-02-04T08:00:06;98113.44;;;10.24
24201;BMP280;2801;50.972;7.856;2024-02-04T08:02:36;98110.78;;;10.24
24201;BMP280;2801;50.972;7.856;2024-02-04T08:05:06;98107.78;;;10.25
24201;BMP280;2801;50.972;7.856;2024-02-04T08:07:34;98106.78;;;10.21
24201;BMP280;2801;50.972;7.856;2024-02-04T08:10:01;98098.94;;;10.25
24201;BMP280;2801;50.972;7.856;2024-02-04T08:12:28;98078.66;;;10.32
24201;BMP280;2801;50.972;7.856;2024-02-04T08:14:55;98091.38;;;10.27
24201;BMP280;2801;50.972;7.856;2024-02-04T08:17:24;98088.22;;;10.25
24201;BMP280;2801;50.972;7.856;2024-02-04T08:19:54;98089.34;;;10.24
24201;BMP280;2801;50.972;7.856;2024-02-04T08:22:21;98099.25;;;10.23
24201;BMP280;2801;50.972;7.856;2024-02-04T08:24:48;98095.16;;;10.26
24201;BMP280;2801;50.972;7.856;2024-02-04T08:27:16;98089.63;;;10.22
24201;BMP280;2801;50.972;7.856;2024-02-04T08:29:44;98093.09;;;10.23
24201;BMP280;2801;50.972;7.856;2024-02-04T08:32:11;98096.06;;;10.21
24201;BMP280;2801;50.972;7.856;2024-02-04T08:34:40;98090.47;;;10.31
24201;BMP280;2801;50.972;7.856;2024-02-04T08:37:07;98104.69;;;10.32
24201;BMP280;2801;50.972;7.856;2024-02-04T08:39:34;98103.28;;;10.34
24201;BMP280;2801;50.972;7.856;2024-02-04T08:42:01;98098.22;;;10.33
24201;BMP280;2801;50.972;7.856;2024-02-04T08:44:28;98108.94;;;10.33
24201;BMP280;2801;50.972;7.856;2024-02-04T08:47:05;98106.41;;;10.36
24201;BMP280;2801;50.972;7.856;2024-02-04T08:49:32;98104.69;;;10.32
24201;BMP280;2801;50.972;7.856;2024-02-04T08:51:59;98106.25;;;10.33
24201;BMP280;2801;50.972;7.856;2024-02-04T08:54:27;98104.47;;;10.28
24201;BMP280;2801;50.972;7.856;2024-02-04T08:56:54;98099.13;;;10.28
24201;BMP280;2801;50.972;7.856;2024-02-04T08:59:21;98090.16;;;10.33
24201;BMP280;2801;50.972;7.856;2024-02-04T09:01:51;98094.63;;;10.37
24201;BMP280;2801;50.972;7.856;2024-02-04T09:04:19;98097.91;;;10.34
24201;BMP280;2801;50.972;7.856;2024-02-04T09:06:46;98088.97;;;10.39
24201;BMP280;2801;50.972;7.856;2024-02-04T09:09:13;98086.09;;;10.35
24201;BMP280;2801;50.972;7.856;2024-02-04T09:11:40;98095.22;;;10.34
24201;BMP280;2801;50.972;7.856;2024-02-04T09:14:08;98089.19;;;10.29
24201;BMP280;2801;50.972;7.856;2024-02-04T09:16:38;98085.13;;;10.31
24201;BMP280;2801;50.972;7.856;2024-02-04T09:19:06;98095.03;;;10.31
24201;BMP280;2801;50.972;7.856;2024-02-04T09:21:33;98085.78;;;10.37
24201;BMP280;2801;50.972;7.856;2024-02-04T09:24:00;98094.72;;;10.32
24201;BMP280;2801;50.972;7.856;2024-02-04T09:26:27;98091.63;;;10.39
24201;BMP280;2801;50.972;7.856;2024-02-04T09:28:54;98092.25;;;10.36
24201;BMP280;2801;50.972;7.856;2024-02-04T09:31:22;98096.63;;;10.32
24201;BMP280;2801;50.972;7.856;2024-02-04T09:33:49;98109.44;;;10.35
24201;BMP280;2801;50.972;7.856;2024-02-04T09:36:16;98109.44;;;10.35
24201;BMP280;2801;50.972;7.856;2024-02-04T09:38:44;98112.59;;;10.37
24201;BMP280;2801;50.972;7.856;2024-02-04T09:41:11;98108.63;;;10.34
24201;BMP280;2801;50.972;7.856;2024-02-04T09:43:39;98109.44;;;10.35
24201;BMP280;2801;50.972;7.856;2024-02-04T09:46:08;98127.47;;;10.43
24201;BMP280;2801;50.972;7.856;2024-02-04T09:48:38;98118.75;;;10.37
24201;BMP280;2801;50.972;7.856;2024-02-04T09:51:07;98125.75;;;10.47
24201;BMP280;2801;50.972;7.856;2024-02-04T09:53:36;98127.81;;;10.50
24201;BMP280;2801;50.972;7.856;2024-02-04T09:56:08;98105.28;;;10.51
24201;BMP280;2801;50.972;7.856;2024-02-04T09:58:36;98112.03;;;10.48
24201;BMP280;2801;50.972;7.856;2024-02-04T10:01:04;98112.34;;;10.47
24201;BMP280;2801;50.972;7.856;2024-02-04T10:03:35;98117.13;;;10.58
24201;BMP280;2801;50.972;7.856;2024-02-04T10:06:02;98117.13;;;10.58
24201;BMP280;2801;50.972;7.856;2024-02-04T10:08:30;98122.50;;;10.58
24201;BMP280;2801;50.972;7.856;2024-02-04T10:10:57;98112.25;;;10.60
24201;BMP280;2801;50.972;7.856;2024-02-04T10:13:25;98120.31;;;10.60
24201;BMP280;2801;50.972;7.856;2024-02-04T10:15:52;98118.22;;;10.57
24201;BMP280;2801;50.972;7.856;2024-02-04T10:18:19;98111.59;;;10.55
24201;BMP280;2801;50.972;7.856;2024-02-04T10:20:49;98101.66;;;10.55
24201;BMP280;2801;50.972;7.856;2024-02-04T10:23:16;98101.84;;;10.59
24201;BMP280;2801;50.972;7.856;2024-02-04T10:25:43;98109.44;;;10.65
24201;BMP280;2801;50.972;7.856;2024-02-04T10:28:10;98104.38;;;10.64
24201;BMP280;2801;50.972;7.856;2024-02-04T10:30:38;98109.44;;;10.65
24201;BMP280;2801;50.972;7.856;2024-02-04T10:33:07;98106.59;;;10.62
24201;BMP280;2801;50.972;7.856;2024-02-04T10:35:34;98125.06;;;10.63
24201;BMP280;2801;50.972;7.856;2024-02-04T10:38:01;98101.25;;;10.62
24201;BMP280;2801;50.972;7.856;2024-02-04T10:40:28;98118.09;;;10.62
24201;BMP280;2801;50.972;7.856;2024-02-04T10:43:00;98100.28;;;10.58
24201;BMP280;2801;50.972;7.856;2024-02-04T10:45:32;98099.78;;;10.56
24201;BMP280;2801;50.972;7.856;2024-02-04T10:48:03;98098.84;;;10.60
24201;BMP280;2801;50.972;7.856;2024-02-04T10:50:35;98092.03;;;10.54
24201;BMP280;2801;50.972;7.856;2024-02-04T10:53:05;98101.84;;;10.59
24201;BMP280;2801;50.972;7.856;2024-02-04T10:55:41;98106.41;;;10.58
24201;BMP280;2801;50.972;7.856;2024-02-04T10:58:12;98096.78;;;10.57
24201;BMP280;2801;50.972;7.856;2024-02-04T11:00:41;98101.34;;;10.57
24201;BMP280;2801;50.972;7.856;2024-02-04T11:03:08;98110.78;;;10.54
24201;BMP280;2801;50.972;7.856;2024-02-04T11:05:36;98092.47;;;10.48
24201;BMP280;2801;50.972;7.856;2024-02-04T11:08:06;98093.44;;;10.52
24201;BMP280;2801;50.972;7.856;2024-02-04T11:10:36;98094.84;;;10.49
24201;BMP280;2801;50.972;7.856;2024-02-04T11:13:08;98105.44;;;10.54
24201;BMP280;2801;50.972;7.856;2024-02-04T11:15:37;98112.22;;;10.52
24201;BMP280;2801;50.972;7.856;2024-02-04T11:25:17;98090.91;;;10.47
24201;BMP280;2801;50.972;7.856;2024-02-04T11:27:46;98083.31;;;10.49
24201;BMP280;2801;50.972;7.856;2024-02-04T11:30:15;98078.47;;;10.51
24201;BMP280;2801;50.972;7.856;2024-02-04T11:32:42;98079.56;;;10.50
24201;BMP280;2801;50.972;7.856;2024-02-04T11:35:10;98079.56;;;10.50
24201;BMP280;2801;50.972;7.856;2024-02-04T11:37:38;98078.31;;;10.56
24201;BMP280;2801;50.972;7.856;2024-02-04T11:40:15;98065.28;;;10.63
24201;BMP280;2801;50.972;7.856;2024-02-04T11:42:46;98076.13;;;10.58
24201;BMP280;2801;50.972;7.856;2024-02-04T11:45:13;98072.50;;;10.62
24201;BMP280;2801;50.972;7.856;2024-02-04T11:47:41;98071.09;;;10.65
24201;BMP280;2801;50.972;7.856;2024-02-04T11:50:09;98053.13;;;10.65
24201;BMP280;2801;50.972;7.856;2024-02-04T11:52:39;98069.06;;;10.70
24201;BMP280;2801;50.972;7.856;2024-02-04T11:55:14;98062.13;;;10.69
24201;BMP280;2801;50.972;7.856;2024-02-04T11:57:42;98056.47;;;10.71
24201;BMP280;2801;50.972;7.856;2024-02-04T12:00:11;98036.59;;;10.72
24201;BMP280;2801;50.972;7.856;2024-02-04T12:02:38;98041.19;;;10.71
24201;BMP280;2801;50.972;7.856;2024-02-04T12:05:06;98043.25;;;10.74
24201;BMP280;2801;50.972;7.856;2024-02-04T12:07:34;98045.78;;;10.79
24201;BMP280;2801;50.972;7.856;2024-02-04T12:10:04;98037.59;;;10.84
24201;BMP280;2801;50.972;7.856;2024-02-04T12:12:32;98032.84;;;10.81
24201;BMP280;2801;50.972;7.856;2024-02-04T12:15:00;98037.91;;;10.83
24201;BMP280;2801;50.972;7.856;2024-02-04T12:17:28;98039.81;;;10.82
24201;BMP280;2801;50.972;7.856;2024-02-04T12:19:55;98038.69;;;10.83
24201;BMP280;2801;50.972;7.856;2024-02-04T12:22:22;98038.69;;;10.83
24201;BMP280;2801;50.972;7.856;2024-02-04T12:24:50;98026.88;;;10.84
24201;BMP280;2801;50.972;7.856;2024-02-04T12:27:17;98026.09;;;10.84
24201;BMP280;2801;50.972;7.856;2024-02-04T12:29:44;98005.25;;;10.81
24201;BMP280;2801;50.972;7.856;2024-02-04T12:32:13;98024.50;;;10.83
24201;BMP280;2801;50.972;7.856;2024-02-04T12:34:40;98017.72;;;10.85
24201;BMP280;2801;50.972;7.856;2024-02-04T12:37:10;98022.00;;;10.86
24201;BMP280;2801;50.972;7.856;2024-02-04T12:39:38;98024.03;;;10.81
24201;BMP280;2801;50.972;7.856;2024-02-04T12:42:05;98020.38;;;10.77
24201;BMP280;2801;50.972;7.856;2024-02-04T12:44:32;98016.75;;;10.81
24201;BMP280;2801;50.972;7.856;2024-02-04T12:46:59;98017.50;;;10.73
24201;BMP280;2801;50.972;7.856;2024-02-04T12:49:26;98014.22;;;10.76
24201;BMP280;2801;50.972;7.856;2024-02-04T12:52:07;98005.53;;;10.71
24201;BMP280;2801;50.972;7.856;2024-02-04T12:54:44;98010.72;;;10.67
24201;BMP280;2801;50.972;7.856;2024-02-04T12:57:22;98006.13;;;10.68
24201;BMP280;2801;50.972;7.856;2024-02-04T13:00:04;98008.16;;;10.62
24201;BMP280;2801;50.972;7.856;2024-02-04T13:02:36;98009.09;;;10.58
24201;BMP280;2801;50.972;7.856;2024-02-04T13:05:03;97994.75;;;10.62
24201;BMP280;2801;50.972;7.856;2024-02-04T13:07:30;97993.69;;;10.63
24201;BMP280;2801;50.972;7.856;2024-02-04T13:10:01;98003.00;;;10.66
24201;BMP280;2801;50.972;7.856;2024-02-04T13:12:28;98009.97;;;10.75
24201;BMP280;2801;50.972;7.856;2024-02-04T13:14:55;98008.50;;;10.69
24201;BMP280;2801;50.972;7.856;2024-02-04T13:17:22;97997.31;;;10.76
24201;BMP280;2801;50.972;7.856;2024-02-04T13:19:49;97988.00;;;10.73
24201;BMP280;2801;50.972;7.856;2024-02-04T13:22:17;97989.28;;;10.76
24201;BMP280;2801;50.972;7.856;2024-02-04T13:24:44;97992.59;;;10.73
24201;BMP280;2801;50.972;7.856;2024-02-04T13:27:11;97982.03;;;10.76
24201;BMP280;2801;50.972;7.856;2024-02-04T13:29:38;97987.41;;;10.76
24201;BMP280;2801;50.972;7.856;2024-02-04T13:32:05;97978.88;;;10.74
24201;BMP280;2801;50.972;7.856;2024-02-04T13:34:33;97978.53;;;10.67
24201;BMP280;2801;50.972;7.856;2024-02-04T13:37:01;97977.78;;;10.75
24201;BMP280;2801;50.972;7.856;2024-02-04T13:39:28;97973.69;;;10.78
24201;BMP280;2801;50.972;7.856;2024-02-04T13:41:55;97970.66;;;10.71
24201;BMP280;2801;50.972;7.856;2024-02-04T13:44:23;97971.16;;;10.73
24201;BMP280;2801;50.972;7.856;2024-02-04T13:46:50;97976.97;;;10.75
24201;BMP280;2801;50.972;7.856;2024-02-04T13:49:17;97968.47;;;10.73
24201;BMP280;2801;50.972;7.856;2024-02-04T13:51:44;97978.25;;;10.77
24201;BMP280;2801;50.972;7.856;2024-02-04T13:54:12;97974.28;;;10.75
24201;BMP280;2801;50.972;7.856;2024-02-04T13:56:45;97974.91;;;10.72
24201;BMP280;2801;50.972;7.856;2024-02-04T13:59:13;97969.41;;;10.68
24201;BMP280;2801;50.972;7.856;2024-02-04T14:01:41;97989.44;;;10.71
24201;BMP280;2801;50.972;7.856;2024-02-04T14:04:08;97987.66;;;10.66
24201;BMP280;2801;50.972;7.856;2024-02-04T14:06:36;97991.31;;;10.70
24201;BMP280;2801;50.972;7.856;2024-02-04T14:09:03;97991.16;;;10.67
24201;BMP280;2801;50.972;7.856;2024-02-04T14:11:30;97981.34;;;10.62
24201;BMP280;2801;50.972;7.856;2024-02-04T14:13:57;97990.50;;;10.61
24201;BMP280;2801;50.972;7.856;2024-02-04T14:16:25;97985.63;;;10.63
24201;BMP280;2801;50.972;7.856;2024-02-04T14:18:52;97985.13;;;10.61
24201;BMP280;2801;50.972;7.856;2024-02-04T14:21:24;97997.44;;;10.54
24201;BMP280;2801;50.972;7.856;2024-02-04T14:23:51;97987.47;;;10.54
24201;BMP280;2801;50.972;7.856;2024-02-04T14:26:20;97988.56;;;10.53
24201;BMP280;2801;50.972;7.856;2024-02-04T14:28:48;97998.81;;;10.51
24201;BMP280;2801;50.972;7.856;2024-02-04T14:31:15;97988.88;;;10.52
24201;BMP280;2801;50.972;7.856;2024-02-04T14:33:43;97994.09;;;10.48
24201;BMP280;2801;50.972;7.856;2024-02-04T14:36:11;97987.63;;;10.49
24201;BMP280;2801;50.972;7.856;2024-02-04T14:38:38;97997.72;;;10.52
24201;BMP280;2801;50.972;7.856;2024-02-04T14:41:06;97984.31;;;10.52